createdAt,value
2019-02-10T00:01:30.565Z,6.60
2019-02-10T00:03:59.772Z,8.73
2019-02-10T00:06:28.916Z,6.20
2019-02-10T00:08:58.122Z,5.90
2019-02-10T00:11:27.369Z,7.47
2019-02-10T00:13:57.641Z,7.03
2019-02-10T00:16:26.929Z,6.43
2019-02-10T00:18:56.339Z,4.80
2019-02-10T00:21:25.584Z,6.43
2019-02-10T00:23:54.728Z,8.93
2019-02-10T00:26:23.981Z,5.70
2019-02-10T00:28:53.120Z,6.07
2019-02-10T00:31:22.280Z,5.47
2019-02-10T00:33:51.542Z,7.33
2019-02-10T00:36:20.767Z,7.13
2019-02-10T00:38:49.931Z,6.37
2019-02-10T00:41:19.285Z,6.73
2019-02-10T00:43:48.438Z,7.80
2019-02-10T00:46:17.607Z,4.97
2019-02-10T00:48:46.756Z,6.13
2019-02-10T00:51:16.006Z,2.97
2019-02-10T00:53:45.164Z,6.10
2019-02-10T00:56:14.435Z,5.70
2019-02-10T00:58:43.588Z,3.57
2019-02-10T01:01:12.883Z,6.83
2019-02-10T01:03:42.031Z,9.20
2019-02-10T01:06:11.180Z,7.47
2019-02-10T01:08:40.340Z,7.70
2019-02-10T01:11:09.493Z,7.13
2019-02-10T01:13:39.068Z,5.23
2019-02-10T01:16:08.227Z,9.27
2019-02-10T01:18:37.680Z,5.00
2019-02-10T01:21:06.893Z,11.50
2019-02-10T01:23:36.036Z,9.90
2019-02-10T01:26:05.247Z,6.40
2019-02-10T01:28:34.407Z,8.43
2019-02-10T01:31:03.825Z,9.30
2019-02-10T01:33:32.985Z,7.50
2019-02-10T01:36:02.131Z,7.53
2019-02-10T01:38:31.263Z,9.40
2019-02-10T01:41:00.658Z,10.53
2019-02-10T01:43:29.854Z,8.60
2019-02-10T01:45:58.987Z,7.03
2019-02-10T01:48:28.332Z,10.07
2019-02-10T01:50:57.548Z,9.07
2019-02-10T01:53:26.695Z,7.40
2019-02-10T01:55:55.875Z,9.70
2019-02-10T01:58:25.093Z,6.53
2019-02-10T02:00:54.323Z,8.23
2019-02-10T02:03:23.460Z,8.33
2019-02-10T02:05:52.633Z,8.83
2019-02-10T02:08:21.773Z,10.00
2019-02-10T02:10:50.933Z,7.90
2019-02-10T02:13:20.059Z,8.97
2019-02-10T02:15:49.304Z,9.60
2019-02-10T02:18:18.445Z,9.00
2019-02-10T02:20:47.594Z,7.07
2019-02-10T02:23:16.888Z,9.63
2019-02-10T02:25:46.064Z,7.73
2019-02-10T02:28:15.201Z,11.17
2019-02-10T02:30:44.683Z,7.20
2019-02-10T02:33:13.824Z,7.17
2019-02-10T02:35:42.976Z,7.40
2019-02-10T02:38:12.120Z,14.93
2019-02-10T02:40:41.255Z,9.57
2019-02-10T02:43:10.415Z,8.27
2019-02-10T02:45:39.536Z,7.97
2019-02-10T02:48:08.684Z,6.50
2019-02-10T02:50:38.003Z,6.83
2019-02-10T02:53:07.148Z,9.30
2019-02-10T02:55:36.296Z,5.13
2019-02-10T02:58:05.446Z,5.17
2019-02-10T03:00:34.970Z,8.27
2019-02-10T03:03:04.133Z,7.77
2019-02-10T03:05:33.277Z,5.23
2019-02-10T03:08:02.518Z,5.90
2019-02-10T03:10:31.659Z,6.07
2019-02-10T03:13:00.996Z,4.87
2019-02-10T03:15:30.148Z,7.33
2019-02-10T03:17:59.309Z,5.60
2019-02-10T03:20:28.656Z,5.53
2019-02-10T03:22:57.831Z,5.60
2019-02-10T03:25:26.971Z,5.50
2019-02-10T03:27:56.148Z,5.17
2019-02-10T03:30:25.346Z,2.77
2019-02-10T03:32:54.523Z,5.47
2019-02-10T03:35:23.653Z,4.60
2019-02-10T03:37:52.802Z,5.97
2019-02-10T03:40:21.925Z,4.53
2019-02-10T03:42:51.269Z,4.90
2019-02-10T03:45:20.423Z,4.27
2019-02-10T03:47:49.547Z,4.33
2019-02-10T03:50:18.723Z,5.10
2019-02-10T03:52:47.878Z,4.13
2019-02-10T03:55:17.107Z,4.60
2019-02-10T03:57:46.252Z,3.13
2019-02-10T04:00:15.530Z,5.73
2019-02-10T04:02:44.676Z,3.67
2019-02-10T04:05:13.828Z,3.10
2019-02-10T04:07:43.188Z,7.70
2019-02-10T04:10:12.841Z,7.47
2019-02-10T04:12:41.967Z,3.10
2019-02-10T04:15:11.127Z,3.80
2019-02-10T04:17:40.315Z,6.27
2019-02-10T04:20:09.456Z,4.10
2019-02-10T04:22:38.599Z,2.83
2019-02-10T04:25:08.072Z,5.33
2019-02-10T04:27:37.207Z,3.83
2019-02-10T04:30:06.771Z,3.60
2019-02-10T04:32:35.908Z,4.27
2019-02-10T04:35:05.765Z,4.03
2019-02-10T04:37:34.884Z,3.83
2019-02-10T04:40:04.043Z,4.07
2019-02-10T04:42:33.178Z,4.60
2019-02-10T04:45:02.330Z,5.13
2019-02-10T04:47:31.486Z,3.77
2019-02-10T04:50:00.608Z,2.83
2019-02-10T04:52:29.755Z,2.53
2019-02-10T04:54:58.908Z,2.30
2019-02-10T04:57:28.087Z,2.70
2019-02-10T04:59:57.213Z,3.17
2019-02-10T05:02:26.542Z,2.70
2019-02-10T05:04:55.667Z,2.97
2019-02-10T05:07:24.806Z,6.97
2019-02-10T05:09:55.505Z,3.17
2019-02-10T05:12:24.659Z,3.13
2019-02-10T05:14:53.818Z,4.30
2019-02-10T05:17:22.959Z,2.93
2019-02-10T05:19:52.114Z,4.03
2019-02-10T05:22:21.251Z,2.17
2019-02-10T05:24:50.372Z,3.07
2019-02-10T05:27:19.514Z,2.97
2019-02-10T05:29:48.722Z,2.43
2019-02-10T05:32:17.880Z,3.83
2019-02-10T05:34:47.033Z,2.10
2019-02-10T05:37:16.161Z,3.03
2019-02-10T05:39:45.289Z,1.83
2019-02-10T05:42:14.457Z,2.13
2019-02-10T05:44:43.638Z,4.83
2019-02-10T05:47:12.796Z,4.07
2019-02-10T05:49:41.997Z,3.20
2019-02-10T05:52:11.133Z,3.50
2019-02-10T05:54:40.833Z,5.63
2019-02-10T05:57:10.219Z,2.23
2019-02-10T05:59:39.465Z,2.93
2019-02-10T06:02:25.273Z,2.07
2019-02-10T06:04:54.459Z,2.57
2019-02-10T06:07:23.583Z,2.17
2019-02-10T06:09:52.733Z,4.23
2019-02-10T06:12:21.868Z,2.30
2019-02-10T06:14:51.013Z,2.80
2019-02-10T06:17:20.149Z,3.67
2019-02-10T06:19:49.366Z,1.50
2019-02-10T06:22:18.488Z,1.73
2019-02-10T06:24:47.625Z,2.23
2019-02-10T06:27:16.750Z,2.10
2019-02-10T06:29:45.915Z,1.87
2019-02-10T06:32:15.041Z,2.47
2019-02-10T06:34:44.191Z,2.40
2019-02-10T06:37:13.368Z,2.60
2019-02-10T06:39:43.041Z,2.10
2019-02-10T06:42:12.173Z,1.30
2019-02-10T06:44:41.320Z,1.93
2019-02-10T06:47:10.488Z,1.87
2019-02-10T06:49:39.622Z,1.43
2019-02-10T06:52:08.758Z,1.80
2019-02-10T06:54:45.204Z,2.47
2019-02-10T06:57:14.496Z,1.87
2019-02-10T07:00:05.437Z,4.50
2019-02-10T07:03:15.331Z,1.87
2019-02-10T07:05:44.451Z,2.00
2019-02-10T07:08:13.600Z,1.87
2019-02-10T07:10:42.841Z,1.67
2019-02-10T07:13:14.527Z,1.63
2019-02-10T07:16:19.583Z,2.97
2019-02-10T07:19:24.289Z,3.50
2019-02-10T07:21:53.443Z,2.23
2019-02-10T07:24:44.384Z,2.00
2019-02-10T07:27:36.340Z,3.67
2019-02-10T07:30:40.725Z,3.30
2019-02-10T07:33:53.876Z,3.07
2019-02-10T07:36:34.952Z,28.47
2019-02-10T07:39:50.456Z,7.87
2019-02-10T07:42:58.511Z,3.07
2019-02-10T07:45:49.085Z,3.40
2019-02-10T07:48:31.683Z,2.57
2019-02-10T07:51:41.041Z,2.00
2019-02-10T07:54:42.248Z,2.20
2019-02-10T07:57:36.363Z,3.10
2019-02-10T08:00:51.938Z,1.90
2019-02-10T08:03:57.093Z,1.73
2019-02-10T08:07:04.794Z,1.73
2019-02-10T08:10:26.699Z,2.50
2019-02-10T08:13:22.815Z,1.77
2019-02-10T08:15:59.269Z,1.40
2019-02-10T08:19:01.518Z,2.20
2019-02-10T08:22:02.603Z,1.53
2019-02-10T08:25:22.097Z,1.93
2019-02-10T08:28:53.580Z,1.63
2019-02-10T08:31:50.297Z,1.50
2019-02-10T08:34:44.901Z,1.30
2019-02-10T08:38:02.602Z,2.30
2019-02-10T08:40:49.752Z,3.00
2019-02-10T08:43:51.057Z,5.80
2019-02-10T08:46:49.427Z,2.77
2019-02-10T08:50:05.696Z,1.50
2019-02-10T08:52:42.531Z,1.30
2019-02-10T08:55:11.802Z,1.30
2019-02-10T08:57:40.976Z,2.00
2019-02-10T09:00:11.228Z,1.73
2019-02-10T09:02:40.491Z,1.53
2019-02-10T09:05:09.851Z,1.43
2019-02-10T09:07:39.364Z,1.73
2019-02-10T09:10:10.501Z,2.10
2019-02-10T09:12:39.680Z,1.73
2019-02-10T09:15:10.017Z,2.00
2019-02-10T09:17:39.523Z,1.57
2019-02-10T09:20:09.513Z,1.13
2019-02-10T09:22:38.701Z,2.07
2019-02-10T09:25:08.868Z,2.00
2019-02-10T09:27:38.060Z,1.93
2019-02-10T09:30:08.333Z,1.90
2019-02-10T09:32:37.521Z,1.33
2019-02-10T09:35:07.477Z,2.60
2019-02-10T09:37:37.165Z,2.10
2019-02-10T09:40:25.404Z,1.97
2019-02-10T09:42:54.689Z,2.77
2019-02-10T09:45:23.853Z,2.43
2019-02-10T09:47:53.033Z,3.07
2019-02-10T09:50:22.316Z,3.13
2019-02-10T09:52:51.725Z,1.53
2019-02-10T09:55:21.257Z,1.87
2019-02-10T09:57:50.500Z,2.03
2019-02-10T10:00:19.701Z,1.83
2019-02-10T10:02:49.085Z,2.03
2019-02-10T10:05:19.618Z,2.13
2019-02-10T10:07:48.929Z,2.80
2019-02-10T10:10:18.110Z,1.60
2019-02-10T10:13:06.672Z,2.80
2019-02-10T10:15:35.851Z,1.67
2019-02-10T10:18:05.132Z,2.07
2019-02-10T10:20:34.323Z,3.60
2019-02-10T10:23:03.593Z,1.47
2019-02-10T10:25:32.897Z,1.50
2019-02-10T10:28:02.061Z,3.70
2019-02-10T10:30:31.412Z,1.73
2019-02-10T10:33:00.967Z,1.67
2019-02-10T10:35:30.228Z,2.50
2019-02-10T10:37:59.394Z,1.80
2019-02-10T10:40:30.543Z,1.90
2019-02-10T10:42:59.725Z,1.70
2019-02-10T10:45:29.118Z,3.20
2019-02-10T10:47:58.296Z,2.83
2019-02-10T10:50:27.512Z,2.27
2019-02-10T10:52:56.644Z,1.30
2019-02-10T10:55:25.914Z,3.50
2019-02-10T10:57:55.344Z,2.60
2019-02-10T11:00:24.601Z,2.30
2019-02-10T11:02:53.898Z,2.90
2019-02-10T11:05:23.245Z,2.73
2019-02-10T11:07:52.538Z,1.87
2019-02-10T11:10:21.854Z,3.43
2019-02-10T11:12:50.988Z,2.73
2019-02-10T11:15:21.404Z,1.60
2019-02-10T11:17:50.559Z,3.00
2019-02-10T11:20:19.884Z,1.80
2019-02-10T11:22:49.040Z,3.13
2019-02-10T11:25:19.808Z,2.50
2019-02-10T11:27:48.963Z,7.93
2019-02-10T11:30:18.168Z,5.80
2019-02-10T11:33:06.406Z,3.53
2019-02-10T11:35:35.608Z,2.13
2019-02-10T11:38:05.006Z,5.30
2019-02-10T11:40:34.204Z,2.53
2019-02-10T11:43:03.436Z,3.87
2019-02-10T11:45:32.681Z,3.53
2019-02-10T11:48:01.880Z,2.67
2019-02-10T11:50:31.131Z,1.80
2019-02-10T11:53:00.377Z,2.20
2019-02-10T11:55:29.540Z,2.17
2019-02-10T11:57:58.865Z,2.43
2019-02-10T12:00:28.056Z,1.97
2019-02-10T12:02:57.242Z,2.83
2019-02-10T12:05:26.484Z,1.80
2019-02-10T12:07:55.755Z,2.27
2019-02-10T12:10:25.328Z,4.37
2019-02-10T12:12:54.655Z,3.17
2019-02-10T12:15:23.821Z,1.60
2019-02-10T12:17:52.980Z,2.30
2019-02-10T12:20:22.213Z,1.40
2019-02-10T12:22:51.641Z,2.67
2019-02-10T12:25:20.773Z,2.40
2019-02-10T12:27:50.028Z,3.43
2019-02-10T12:30:19.286Z,1.70
2019-02-10T12:32:48.471Z,1.70
2019-02-10T12:35:17.619Z,3.53
2019-02-10T12:37:46.781Z,2.40
2019-02-10T12:40:16.137Z,1.60
2019-02-10T12:42:45.297Z,2.73
2019-02-10T12:45:14.721Z,1.73
2019-02-10T12:47:44.016Z,2.07
2019-02-10T12:50:13.401Z,1.87
2019-02-10T12:52:42.658Z,2.00
2019-02-10T12:55:11.873Z,1.90
2019-02-10T12:57:41.132Z,2.27
2019-02-10T13:00:13.432Z,2.00
2019-02-10T13:02:42.776Z,2.10
2019-02-10T13:05:12.470Z,2.17
2019-02-10T13:07:41.657Z,1.50
2019-02-10T13:10:13.066Z,2.87
2019-02-10T13:12:42.315Z,1.80
2019-02-10T13:15:11.585Z,2.03
2019-02-10T13:17:40.834Z,3.63
2019-02-10T13:20:10.224Z,1.30
2019-02-10T13:22:39.630Z,4.63
2019-02-10T13:25:08.864Z,2.00
2019-02-10T13:27:38.323Z,5.03
2019-02-10T13:30:08.789Z,1.47
2019-02-10T13:32:37.985Z,2.17
2019-02-10T13:35:07.383Z,4.00
2019-02-10T13:37:36.582Z,1.93
2019-02-10T13:40:16.258Z,1.93
2019-02-10T13:42:39.536Z,1.40
2019-02-10T13:45:09.392Z,1.50
2019-02-10T13:47:38.657Z,2.43
2019-02-10T13:50:09.584Z,3.17
2019-02-10T13:52:38.842Z,1.40
2019-02-10T13:55:09.284Z,3.10
2019-02-10T13:57:38.714Z,4.20
2019-02-10T14:00:11.477Z,1.33
2019-02-10T14:02:40.852Z,2.20
2019-02-10T14:05:10.641Z,1.57
2019-02-10T14:07:39.927Z,1.67
2019-02-10T14:10:11.157Z,2.63
2019-02-10T14:12:40.752Z,1.83
2019-02-10T14:15:12.064Z,2.60
2019-02-10T14:17:41.262Z,2.63
2019-02-10T14:20:12.795Z,2.10
2019-02-10T14:22:42.000Z,1.73
2019-02-10T14:25:11.177Z,1.80
2019-02-10T14:27:40.382Z,1.90
2019-02-10T14:30:11.232Z,2.37
2019-02-10T14:32:40.496Z,1.87
2019-02-10T14:35:09.704Z,1.70
2019-02-10T14:37:38.967Z,7.13
2019-02-10T14:40:08.508Z,2.00
2019-02-10T14:42:37.749Z,1.50
2019-02-10T14:45:07.604Z,1.47
2019-02-10T14:47:36.819Z,1.53
2019-02-10T14:50:07.564Z,1.27
2019-02-10T14:52:36.828Z,2.43
2019-02-10T14:55:06.373Z,2.13
2019-02-10T14:57:35.635Z,2.23
2019-02-10T15:00:06.120Z,1.67
2019-02-10T15:02:35.325Z,2.50
2019-02-10T15:05:06.258Z,1.33
2019-02-10T15:07:35.599Z,1.50
2019-02-10T15:10:05.802Z,1.30
2019-02-10T15:12:34.972Z,2.90
2019-02-10T15:15:04.590Z,1.53
2019-02-10T15:17:33.945Z,1.50
2019-02-10T15:20:03.197Z,2.30
2019-02-10T15:22:32.371Z,3.17
2019-02-10T15:25:01.778Z,3.23
2019-02-10T15:27:31.261Z,1.90
2019-02-10T15:30:00.495Z,0.90
2019-02-10T15:32:29.643Z,3.00
2019-02-10T15:34:59.157Z,1.70
2019-02-10T15:37:28.681Z,1.27
2019-02-10T15:39:58.428Z,1.93
2019-02-10T15:42:27.878Z,1.20
2019-02-10T15:44:57.207Z,3.77
2019-02-10T15:47:26.386Z,1.83
2019-02-10T15:49:55.738Z,2.97
2019-02-10T15:52:24.947Z,2.40
2019-02-10T15:54:54.116Z,2.37
2019-02-10T15:57:23.576Z,1.70
2019-02-10T15:59:53.440Z,1.40
2019-02-10T16:02:22.683Z,1.40
2019-02-10T16:04:52.947Z,1.17
2019-02-10T16:07:22.176Z,2.90
2019-02-10T16:09:51.444Z,1.60
2019-02-10T16:12:20.794Z,1.53
2019-02-10T16:14:49.960Z,1.50
2019-02-10T16:17:19.873Z,2.07
2019-02-10T16:19:49.048Z,1.87
2019-02-10T16:22:18.837Z,2.30
2019-02-10T16:24:48.157Z,3.33
2019-02-10T16:27:17.401Z,3.37
2019-02-10T16:29:46.775Z,1.63
2019-02-10T16:32:16.228Z,1.27
2019-02-10T16:34:45.365Z,1.53
2019-02-10T16:37:14.987Z,1.53
2019-02-10T16:39:44.184Z,1.50
2019-02-10T16:42:13.921Z,0.97
2019-02-10T16:44:43.232Z,1.53
2019-02-10T16:47:12.787Z,2.53
2019-02-10T16:49:42.127Z,1.47
2019-02-10T16:52:11.324Z,1.37
2019-02-10T16:54:40.465Z,1.47
2019-02-10T16:57:09.826Z,2.33
2019-02-10T16:59:38.995Z,17.20
2019-02-10T17:02:08.377Z,3.73
2019-02-10T17:04:37.596Z,2.37
2019-02-10T17:07:06.814Z,2.27
2019-02-10T17:09:36.081Z,3.77
2019-02-10T17:12:05.339Z,7.30
2019-02-10T17:14:34.621Z,3.40
2019-02-10T17:17:03.882Z,3.37
2019-02-10T17:19:33.060Z,2.97
2019-02-10T17:22:02.529Z,2.30
2019-02-10T17:24:31.896Z,1.00
2019-02-10T17:27:01.150Z,1.00
2019-02-10T17:29:31.391Z,2.17
2019-02-10T17:32:01.023Z,1.00
2019-02-10T17:34:30.418Z,1.70
2019-02-10T17:36:59.736Z,2.13
2019-02-10T17:39:28.925Z,2.07
2019-02-10T17:41:58.187Z,1.50
2019-02-10T17:44:27.519Z,1.13
2019-02-10T17:46:56.945Z,1.23
2019-02-10T17:49:26.153Z,1.40
2019-02-10T17:51:55.343Z,2.93
2019-02-10T17:54:24.750Z,3.47
2019-02-10T17:56:54.416Z,2.07
2019-02-10T17:59:29.949Z,2.33
2019-02-10T18:01:59.251Z,2.27
2019-02-10T18:04:28.799Z,1.60
2019-02-10T18:06:58.113Z,1.00
2019-02-10T18:09:27.322Z,0.50
2019-02-10T18:11:56.641Z,0.43
2019-02-10T18:15:01.496Z,0.50
2019-02-10T18:17:51.503Z,1.33
2019-02-10T18:20:30.527Z,0.70
2019-02-10T18:23:14.232Z,0.60
2019-02-10T18:26:02.298Z,2.17
2019-02-10T18:28:49.304Z,1.60
2019-02-10T18:31:36.660Z,1.27
2019-02-10T18:34:25.598Z,0.97
2019-02-10T18:37:19.646Z,6.83
2019-02-10T18:39:56.371Z,0.90
2019-02-10T18:42:42.620Z,1.43
2019-02-10T18:45:22.501Z,0.80
2019-02-10T18:48:13.816Z,1.40
2019-02-10T18:51:04.962Z,1.00
2019-02-10T18:53:51.748Z,1.43
2019-02-10T18:56:38.913Z,2.30
2019-02-10T18:59:21.994Z,1.63
2019-02-10T19:02:18.649Z,1.63
2019-02-10T19:05:06.932Z,1.97
2019-02-10T19:07:54.195Z,1.87
2019-02-10T19:10:45.385Z,1.10
2019-02-10T19:13:33.909Z,1.50
2019-02-10T19:16:11.781Z,7.57
2019-02-10T19:19:00.031Z,2.27
2019-02-10T19:21:47.139Z,1.03
2019-02-10T19:24:41.465Z,1.10
2019-02-10T19:27:39.062Z,0.90
2019-02-10T19:30:40.948Z,0.80
2019-02-10T19:33:44.388Z,1.77
2019-02-10T19:36:31.474Z,1.37
2019-02-10T19:39:38.337Z,2.37
2019-02-10T19:42:19.585Z,1.47
2019-02-10T19:45:16.659Z,2.27
2019-02-10T19:48:23.001Z,1.73
2019-02-10T19:51:10.708Z,2.03
2019-02-10T19:53:53.397Z,1.43
2019-02-10T19:56:34.861Z,2.07
2019-02-10T19:59:21.963Z,2.70
2019-02-10T20:02:00.957Z,0.70
2019-02-10T20:04:49.127Z,1.07
2019-02-10T20:07:29.417Z,0.50
2019-02-10T20:10:23.653Z,0.60
2019-02-10T20:13:10.819Z,16.40
2019-02-10T20:16:03.720Z,0.97
2019-02-10T20:18:51.909Z,0.77
2019-02-10T20:21:28.707Z,1.73
2019-02-10T20:24:08.710Z,0.90
2019-02-10T20:26:51.354Z,0.63
2019-02-10T20:29:54.963Z,0.83
2019-02-10T20:32:31.527Z,1.77
2019-02-10T20:35:35.350Z,1.00
2019-02-10T20:38:20.777Z,0.80
2019-02-10T20:40:55.847Z,1.10
2019-02-10T20:43:52.848Z,1.03
2019-02-10T20:46:59.244Z,1.20
2019-02-10T20:49:34.253Z,1.17
2019-02-10T20:52:23.554Z,2.67
2019-02-10T20:55:17.525Z,1.17
2019-02-10T20:58:11.661Z,0.50
2019-02-10T21:00:58.569Z,1.63
2019-02-10T21:03:57.599Z,0.63
2019-02-10T21:06:39.552Z,0.77
2019-02-10T21:09:27.508Z,0.50
2019-02-10T21:12:06.092Z,1.13
2019-02-10T21:15:00.307Z,3.00
2019-02-10T21:17:48.526Z,0.63
2019-02-10T21:20:36.714Z,0.97
2019-02-10T21:23:23.641Z,0.97
2019-02-10T21:26:02.211Z,1.07
2019-02-10T21:28:54.277Z,0.50
2019-02-10T21:32:01.879Z,1.43
2019-02-10T21:34:52.928Z,0.40
2019-02-10T21:37:48.985Z,1.10
2019-02-10T21:40:30.429Z,1.13
2019-02-10T21:43:11.432Z,0.47
2019-02-10T21:45:52.400Z,0.60
2019-02-10T21:48:25.368Z,0.50
2019-02-10T21:50:54.539Z,0.50
2019-02-10T21:53:23.913Z,0.70
2019-02-10T21:55:53.444Z,1.10
2019-02-10T21:58:22.692Z,0.93
2019-02-10T22:00:51.838Z,0.53
2019-02-10T22:03:20.977Z,0.53
2019-02-10T22:05:50.144Z,0.70
2019-02-10T22:08:19.398Z,0.50
2019-02-10T22:10:48.696Z,6.83
2019-02-10T22:13:18.006Z,2.07
2019-02-10T22:15:47.228Z,0.70
2019-02-10T22:18:16.433Z,0.50
2019-02-10T22:20:45.727Z,1.93
2019-02-10T22:23:14.973Z,0.40
2019-02-10T22:25:44.143Z,0.70
2019-02-10T22:28:13.283Z,0.60
2019-02-10T22:30:42.464Z,0.60
2019-02-10T22:33:11.792Z,0.60
2019-02-10T22:35:41.017Z,0.40
2019-02-10T22:38:10.231Z,1.00
2019-02-10T22:40:39.401Z,0.50
2019-02-10T22:43:08.562Z,0.50
2019-02-10T22:45:37.691Z,0.53
2019-02-10T22:48:06.937Z,0.70
2019-02-10T22:50:55.165Z,0.50
2019-02-10T22:53:24.327Z,0.80
2019-02-10T22:55:53.589Z,0.57
2019-02-10T22:58:22.764Z,0.50
2019-02-10T23:00:59.507Z,1.07
2019-02-10T23:03:28.672Z,2.00
2019-02-10T23:05:57.812Z,0.50
2019-02-10T23:08:26.981Z,0.50
2019-02-10T23:10:56.836Z,0.50
2019-02-10T23:13:25.997Z,0.70
2019-02-10T23:15:55.134Z,0.87
2019-02-10T23:18:24.659Z,0.80
2019-02-10T23:20:53.797Z,0.50
2019-02-10T23:23:23.069Z,0.73
2019-02-10T23:25:52.280Z,1.17
2019-02-10T23:28:21.451Z,0.50
2019-02-10T23:30:50.713Z,0.57
2019-02-10T23:33:19.861Z,0.60
2019-02-10T23:35:48.990Z,0.43
2019-02-10T23:38:18.232Z,0.60
2019-02-10T23:40:47.400Z,0.57
2019-02-10T23:43:16.552Z,0.50
2019-02-10T23:45:45.760Z,0.50
2019-02-10T23:48:14.904Z,0.53
2019-02-10T23:50:44.107Z,0.67
2019-02-10T23:53:13.244Z,0.50
2019-02-10T23:55:42.395Z,0.80
2019-02-10T23:58:11.690Z,1.43
